sensor_id;sensor_type;location;lat;lon;timestamp;pressure;altitude;pressure_sealevel;temperature
15360;BMP280;7779;49.596;11.070;2023-06-22T00:02:17;98402.94;;;22.19
15360;BMP280;7779;49.596;11.070;2023-06-22T00:04:43;98398.69;;;22.21
15360;BMP280;7779;49.596;11.070;2023-06-22T00:07:09;98387.63;;;22.20
15360;BMP280;7779;49.596;11.070;2023-06-22T00:09:36;98385.94;;;22.21
15360;BMP280;7779;49.596;11.070;2023-06-22T00:12:02;98384.19;;;22.20
15360;BMP280;7779;49.596;11.070;2023-06-22T00:14:28;98384.19;;;22.18
15360;BMP280;7779;49.596;11.070;2023-06-22T00:16:54;98391.84;;;22.17
15360;BMP280;7779;49.596;11.070;2023-06-22T00:19:23;98390.13;;;22.16
15360;BMP280;7779;49.596;11.070;2023-06-22T00:21:50;98387.50;;;22.14
15360;BMP280;7779;49.596;11.070;2023-06-22T00:24:19;98391.75;;;22.14
15360;BMP280;7779;49.596;11.070;2023-06-22T00:26:46;98392.59;;;22.11
15360;BMP280;7779;49.596;11.070;2023-06-22T00:29:12;98387.44;;;22.08
15360;BMP280;7779;49.596;11.070;2023-06-22T00:31:38;98388.28;;;22.06
15360;BMP280;7779;49.596;11.070;2023-06-22T00:34:03;98394.19;;;22.05
15360;BMP280;7779;49.596;11.070;2023-06-22T00:36:33;98403.53;;;22.03
15360;BMP280;7779;49.596;11.070;2023-06-22T00:38:58;98406.91;;;22.02
15360;BMP280;7779;49.596;11.070;2023-06-22T00:41:24;98406.88;;;21.99
15360;BMP280;7779;49.596;11.070;2023-06-22T00:43:54;98404.34;;;21.99
15360;BMP280;7779;49.596;11.070;2023-06-22T00:46:21;98413.66;;;21.97
15360;BMP280;7779;49.596;11.070;2023-06-22T00:48:49;98425.56;;;21.95
15360;BMP280;7779;49.596;11.070;2023-06-22T00:51:15;98429.75;;;21.93
15360;BMP280;7779;49.596;11.070;2023-06-22T00:53:42;98422.94;;;21.91
15360;BMP280;7779;49.596;11.070;2023-06-22T00:56:10;98434.81;;;21.89
15360;BMP280;7779;49.596;11.070;2023-06-22T00:58:38;98443.28;;;21.86
15360;BMP280;7779;49.596;11.070;2023-06-22T01:01:07;98442.41;;;21.84
15360;BMP280;7779;49.596;11.070;2023-06-22T01:03:33;98432.16;;;21.81
15360;BMP280;7779;49.596;11.070;2023-06-22T01:06:10;98425.31;;;21.80
15360;BMP280;7779;49.596;11.070;2023-06-22T01:09:01;98423.56;;;21.76
15360;BMP280;7779;49.596;11.070;2023-06-22T01:11:37;98415.03;;;21.74
15360;BMP280;7779;49.596;11.070;2023-06-22T01:14:16;98409.06;;;21.72
15360;BMP280;7779;49.596;11.070;2023-06-22T01:16:46;98395.47;;;21.72
15360;BMP280;7779;49.596;11.070;2023-06-22T01:22:13;98359.72;;;21.69
15360;BMP280;7779;49.596;11.070;2023-06-22T01:25:26;98345.25;;;21.66
15360;BMP280;7779;49.596;11.070;2023-06-22T01:28:32;98341.78;;;21.61
15360;BMP280;7779;49.596;11.070;2023-06-22T01:31:00;98334.94;;;21.57
15360;BMP280;7779;49.596;11.070;2023-06-22T01:33:34;98324.66;;;21.53
15360;BMP280;7779;49.596;11.070;2023-06-22T01:36:02;98328.03;;;21.51
15360;BMP280;7779;49.596;11.070;2023-06-22T01:38:30;98324.56;;;21.46
15360;BMP280;7779;49.596;11.070;2023-06-22T01:40:57;98324.50;;;21.43
15360;BMP280;7779;49.596;11.070;2023-06-22T01:43:26;98336.38;;;21.41
15360;BMP280;7779;49.596;11.070;2023-06-22T01:45:57;98349.09;;;21.39
15360;BMP280;7779;49.596;11.070;2023-06-22T01:48:23;98344.75;;;21.35
15360;BMP280;7779;49.596;11.070;2023-06-22T01:50:49;98354.97;;;21.34
15360;BMP280;7779;49.596;11.070;2023-06-22T01:53:16;98356.59;;;21.32
15360;BMP280;7779;49.596;11.070;2023-06-22T01:55:42;98362.53;;;21.31
15360;BMP280;7779;49.596;11.070;2023-06-22T01:58:07;98356.56;;;21.29
15360;BMP280;7779;49.596;11.070;2023-06-22T02:00:38;98357.41;;;21.29
15360;BMP280;7779;49.596;11.070;2023-06-22T02:03:19;98360.78;;;21.28
15360;BMP280;7779;49.596;11.070;2023-06-22T02:05:52;98368.44;;;21.27
15360;BMP280;7779;49.596;11.070;2023-06-22T02:08:29;98381.16;;;21.25
15360;BMP280;7779;49.596;11.070;2023-06-22T02:11:00;98387.06;;;21.24
15360;BMP280;7779;49.596;11.070;2023-06-22T02:13:27;98391.31;;;21.24
15360;BMP280;7779;49.596;11.070;2023-06-22T02:15:54;98393.00;;;21.22
15360;BMP280;7779;49.596;11.070;2023-06-22T02:18:19;98387.84;;;21.20
15360;BMP280;7779;49.596;11.070;2023-06-22T02:20:46;98379.34;;;21.18
15360;BMP280;7779;49.596;11.070;2023-06-22T02:23:12;98382.72;;;21.17
15360;BMP280;7779;49.596;11.070;2023-06-22T02:25:37;98375.91;;;21.16
15360;BMP280;7779;49.596;11.070;2023-06-22T02:28:04;98380.09;;;21.13
15360;BMP280;7779;49.596;11.070;2023-06-22T02:30:30;98375.81;;;21.12
15360;BMP280;7779;49.596;11.070;2023-06-22T02:32:56;98375.78;;;21.09
15360;BMP280;7779;49.596;11.070;2023-06-22T02:35:29;98380.84;;;21.06
15360;BMP280;7779;49.596;11.070;2023-06-22T02:37:58;98398.63;;;21.03
15360;BMP280;7779;49.596;11.070;2023-06-22T02:40:25;98407.09;;;21.02
15360;BMP280;7779;49.596;11.070;2023-06-22T02:42:51;98427.53;;;21.05
15360;BMP280;7779;49.596;11.070;2023-06-22T02:45:16;98464.09;;;21.07
15360;BMP280;7779;49.596;11.070;2023-06-22T02:47:43;98513.41;;;21.11
15360;BMP280;7779;49.596;11.070;2023-06-22T02:50:09;98556.72;;;21.12
15360;BMP280;7779;49.596;11.070;2023-06-22T02:52:35;98572.09;;;21.16
15360;BMP280;7779;49.596;11.070;2023-06-22T02:55:02;98561.09;;;21.19
15360;BMP280;7779;49.596;11.070;2023-06-22T02:57:29;98539.03;;;21.21
15360;BMP280;7779;49.596;11.070;2023-06-22T02:59:55;98537.41;;;21.24
15360;BMP280;7779;49.596;11.070;2023-06-22T03:02:21;98534.09;;;21.27
15360;BMP280;7779;49.596;11.070;2023-06-22T03:04:47;98534.09;;;21.30
15360;BMP280;7779;49.596;11.070;2023-06-22T03:07:15;98526.53;;;21.33
15360;BMP280;7779;49.596;11.070;2023-06-22T03:09:42;98524.06;;;21.39
15360;BMP280;7779;49.596;11.070;2023-06-22T03:12:09;98514.00;;;21.43
15360;BMP280;7779;49.596;11.070;2023-06-22T03:14:53;98508.94;;;21.46
15360;BMP280;7779;49.596;11.070;2023-06-22T03:17:18;98511.56;;;21.51
15360;BMP280;7779;49.596;11.070;2023-06-22T03:19:44;98499.72;;;21.53
15360;BMP280;7779;49.596;11.070;2023-06-22T03:22:10;98498.88;;;21.55
15360;BMP280;7779;49.596;11.070;2023-06-22T03:24:35;98479.38;;;21.56
15360;BMP280;7779;49.596;11.070;2023-06-22T03:27:03;98480.22;;;21.56
15360;BMP280;7779;49.596;11.070;2023-06-22T03:29:31;98487.03;;;21.56
15360;BMP280;7779;49.596;11.070;2023-06-22T03:31:57;98482.81;;;21.57
15360;BMP280;7779;49.596;11.070;2023-06-22T03:34:22;98471.78;;;21.60
15360;BMP280;7779;49.596;11.070;2023-06-22T03:36:51;98474.34;;;21.61
15360;BMP280;7779;49.596;11.070;2023-06-22T03:39:17;98453.16;;;21.65
15360;BMP280;7779;49.596;11.070;2023-06-22T03:41:43;98454.06;;;21.69
15360;BMP280;7779;49.596;11.070;2023-06-22T03:44:09;98454.13;;;21.73
15360;BMP280;7779;49.596;11.070;2023-06-22T03:46:38;98426.97;;;21.77
15360;BMP280;7779;49.596;11.070;2023-06-22T03:49:04;98432.16;;;21.81
15360;BMP280;7779;49.596;11.070;2023-06-22T03:51:32;98444.13;;;21.87
15360;BMP280;7779;49.596;11.070;2023-06-22T03:53:57;98426.34;;;21.93
15360;BMP280;7779;49.596;11.070;2023-06-22T03:56:23;98408.56;;;21.97
15360;BMP280;7779;49.596;11.070;2023-06-22T03:58:49;98422.22;;;22.02
15360;BMP280;7779;49.596;11.070;2023-06-22T04:01:14;98419.78;;;22.08
15360;BMP280;7779;49.596;11.070;2023-06-22T04:03:42;98400.25;;;22.14
15360;BMP280;7779;49.596;11.070;2023-06-22T04:06:08;98405.47;;;22.19
15360;BMP280;7779;49.596;11.070;2023-06-22T04:08:34;98405.50;;;22.23
15360;BMP280;7779;49.596;11.070;2023-06-22T04:11:00;98393.69;;;22.30
15360;BMP280;7779;49.596;11.070;2023-06-22T04:13:25;98361.41;;;22.36
15360;BMP280;7779;49.596;11.070;2023-06-22T04:15:51;98359.75;;;22.39
15360;BMP280;7779;49.596;11.070;2023-06-22T04:18:17;98363.22;;;22.44
15360;BMP280;7779;49.596;11.070;2023-06-22T04:20:42;98365.81;;;22.50
15360;BMP280;7779;49.596;11.070;2023-06-22T04:23:10;98367.59;;;22.57
15360;BMP280;7779;49.596;11.070;2023-06-22T04:25:36;98359.19;;;22.67
15360;BMP280;7779;49.596;11.070;2023-06-22T04:28:01;98358.41;;;22.75
15360;BMP280;7779;49.596;11.070;2023-06-22T04:30:28;98338.16;;;22.89
15360;BMP280;7779;49.596;11.070;2023-06-22T04:32:57;98331.41;;;23.03
15360;BMP280;7779;49.596;11.070;2023-06-22T04:35:24;98340.94;;;23.21
15360;BMP280;7779;49.596;11.070;2023-06-22T04:37:50;98350.47;;;23.43
15360;BMP280;7779;49.596;11.070;2023-06-22T04:40:22;98342.06;;;23.62
15360;BMP280;7779;49.596;11.070;2023-06-22T04:42:48;98335.34;;;23.79
15360;BMP280;7779;49.596;11.070;2023-06-22T04:45:18;98325.16;;;23.93
15360;BMP280;7779;49.596;11.070;2023-06-22T04:47:44;98320.94;;;24.06
15360;BMP280;7779;49.596;11.070;2023-06-22T04:50:14;98326.09;;;24.18
15360;BMP280;7779;49.596;11.070;2023-06-22T04:52:40;98325.31;;;24.29
15360;BMP280;7779;49.596;11.070;2023-06-22T04:55:06;98317.63;;;24.39
15360;BMP280;7779;49.596;11.070;2023-06-22T04:57:32;98300.59;;;24.47
15360;BMP280;7779;49.596;11.070;2023-06-22T05:00:00;98310.00;;;24.54
15360;BMP280;7779;49.596;11.070;2023-06-22T05:02:41;98310.00;;;24.59
15360;BMP280;7779;49.596;11.070;2023-06-22T05:05:07;98315.97;;;24.67
15360;BMP280;7779;49.596;11.070;2023-06-22T05:07:36;98308.28;;;24.75
15360;BMP280;7779;49.596;11.070;2023-06-22T05:10:03;98304.88;;;24.85
15360;BMP280;7779;49.596;11.070;2023-06-22T05:12:30;98306.63;;;24.98
15360;BMP280;7779;49.596;11.070;2023-06-22T05:14:57;98304.91;;;25.12
15360;BMP280;7779;49.596;11.070;2023-06-22T05:17:23;98306.56;;;25.31
15360;BMP280;7779;49.596;11.070;2023-06-22T05:19:49;98301.38;;;25.54
15360;BMP280;7779;49.596;11.070;2023-06-22T05:22:15;98294.50;;;25.80
15360;BMP280;7779;49.596;11.070;2023-06-22T05:24:42;98289.25;;;26.05
15360;BMP280;7779;49.596;11.070;2023-06-22T05:27:09;98295.94;;;26.32
15360;BMP280;7779;49.596;11.070;2023-06-22T05:29:37;98292.38;;;26.53
15360;BMP280;7779;49.596;11.070;2023-06-22T05:32:04;98289.69;;;26.71
15360;BMP280;7779;49.596;11.070;2023-06-22T05:34:29;98291.28;;;26.88
15360;BMP280;7779;49.596;11.070;2023-06-22T05:36:55;98288.56;;;27.05
15360;BMP280;7779;49.596;11.070;2023-06-22T05:39:21;98296.97;;;27.20
15360;BMP280;7779;49.596;11.070;2023-06-22T05:41:46;98298.53;;;27.34
15360;BMP280;7779;49.596;11.070;2023-06-22T05:44:12;98288.13;;;27.49
15360;BMP280;7779;49.596;11.070;2023-06-22T05:46:42;98283.69;;;27.61
15360;BMP280;7779;49.596;11.070;2023-06-22T05:49:11;98291.28;;;27.73
15360;BMP280;7779;49.596;11.070;2023-06-22T05:51:37;98286.84;;;27.86
15360;BMP280;7779;49.596;11.070;2023-06-22T05:54:03;98293.56;;;27.97
15360;BMP280;7779;49.596;11.070;2023-06-22T05:56:28;98280.53;;;28.10
15360;BMP280;7779;49.596;11.070;2023-06-22T05:58:54;98287.16;;;28.26
15360;BMP280;7779;49.596;11.070;2023-06-22T06:01:20;98289.50;;;28.42
15360;BMP280;7779;49.596;11.070;2023-06-22T06:03:46;98278.13;;;28.57
15360;BMP280;7779;49.596;11.070;2023-06-22T06:06:12;98271.03;;;28.73
15360;BMP280;7779;49.596;11.070;2023-06-22T06:08:39;98268.16;;;28.90
15360;BMP280;7779;49.596;11.070;2023-06-22T06:11:04;98270.47;;;29.05
15360;BMP280;7779;49.596;11.070;2023-06-22T06:13:30;98273.63;;;29.21
15360;BMP280;7779;49.596;11.070;2023-06-22T06:15:56;98275.91;;;29.38
15360;BMP280;7779;49.596;11.070;2023-06-22T06:18:23;98279.03;;;29.54
15360;BMP280;7779;49.596;11.070;2023-06-22T06:20:49;98273.56;;;29.69
15360;BMP280;7779;49.596;11.070;2023-06-22T06:23:14;98267.31;;;29.82
15360;BMP280;7779;49.596;11.070;2023-06-22T06:25:40;98266.06;;;29.99
15360;BMP280;7779;49.596;11.070;2023-06-22T06:28:06;98269.97;;;30.17
15360;BMP280;7779;49.596;11.070;2023-06-22T06:30:32;98277.41;;;30.33
15360;BMP280;7779;49.596;11.070;2023-06-22T06:32:58;98272.78;;;30.45
15360;BMP280;7779;49.596;11.070;2023-06-22T06:35:24;98263.88;;;30.58
15360;BMP280;7779;49.596;11.070;2023-06-22T06:37:50;98255.84;;;30.69
15360;BMP280;7779;49.596;11.070;2023-06-22T06:40:18;98252.22;;;30.77
15360;BMP280;7779;49.596;11.070;2023-06-22T06:42:48;98235.66;;;30.84
15360;BMP280;7779;49.596;11.070;2023-06-22T06:45:21;98244.94;;;30.92
15360;BMP280;7779;49.596;11.070;2023-06-22T06:47:52;98242.16;;;31.00
15360;BMP280;7779;49.596;11.070;2023-06-22T06:50:18;98243.69;;;31.07
15360;BMP280;7779;49.596;11.070;2023-06-22T06:52:44;98241.78;;;31.14
15360;BMP280;7779;49.596;11.070;2023-06-22T06:55:10;98241.50;;;31.23
15360;BMP280;7779;49.596;11.070;2023-06-22T06:57:41;98236.09;;;31.32
15360;BMP280;7779;49.596;11.070;2023-06-22T07:00:12;98231.56;;;31.42
15360;BMP280;7779;49.596;11.070;2023-06-22T07:02:43;98234.75;;;31.51
15360;BMP280;7779;49.596;11.070;2023-06-22T07:05:11;98223.34;;;31.56
15360;BMP280;7779;49.596;11.070;2023-06-22T07:07:38;98221.41;;;31.63
15360;BMP280;7779;49.596;11.070;2023-06-22T07:10:05;98218.75;;;31.66
15360;BMP280;7779;49.596;11.070;2023-06-22T07:12:31;98218.75;;;31.66
15360;BMP280;7779;49.596;11.070;2023-06-22T07:15:10;98216.22;;;31.64
15360;BMP280;7779;49.596;11.070;2023-06-22T07:17:37;98204.97;;;31.65
15360;BMP280;7779;49.596;11.070;2023-06-22T07:20:04;98203.09;;;31.70
15360;BMP280;7779;49.596;11.070;2023-06-22T07:22:41;98201.13;;;31.78
15360;BMP280;7779;49.596;11.070;2023-06-22T07:25:08;98207.72;;;31.90
15360;BMP280;7779;49.596;11.070;2023-06-22T07:27:43;98205.69;;;31.99
15360;BMP280;7779;49.596;11.070;2023-06-22T07:30:10;98211.53;;;32.05
15360;BMP280;7779;49.596;11.070;2023-06-22T07:32:37;98206.34;;;32.05
15360;BMP280;7779;49.596;11.070;2023-06-22T07:35:03;98198.66;;;32.02
15360;BMP280;7779;49.596;11.070;2023-06-22T07:37:30;98208.16;;;32.03
15360;BMP280;7779;49.596;11.070;2023-06-22T07:39:56;98202.97;;;32.03
15360;BMP280;7779;49.596;11.070;2023-06-22T07:42:27;98196.78;;;32.07
15360;BMP280;7779;49.596;11.070;2023-06-22T07:44:54;98202.69;;;32.12
15360;BMP280;7779;49.596;11.070;2023-06-22T07:47:20;98193.03;;;32.17
15360;BMP280;7779;49.596;11.070;2023-06-22T07:49:50;98192.84;;;32.23
15360;BMP280;7779;49.596;11.070;2023-06-22T07:52:16;98195.25;;;32.28
15360;BMP280;7779;49.596;11.070;2023-06-22T07:54:41;98192.50;;;32.33
15360;BMP280;7779;49.596;11.070;2023-06-22T07:57:07;98187.09;;;32.41
15360;BMP280;7779;49.596;11.070;2023-06-22T07:59:33;98188.53;;;32.49
15360;BMP280;7779;49.596;11.070;2023-06-22T08:01:59;98188.31;;;32.57
15360;BMP280;7779;49.596;11.070;2023-06-22T08:04:24;98190.56;;;32.66
15360;BMP280;7779;49.596;11.070;2023-06-22T08:06:53;98184.09;;;32.78
15360;BMP280;7779;49.596;11.070;2023-06-22T08:09:19;98190.59;;;32.91
15360;BMP280;7779;49.596;11.070;2023-06-22T08:11:45;98194.47;;;33.04
15360;BMP280;7779;49.596;11.070;2023-06-22T08:14:11;98194.00;;;33.16
15360;BMP280;7779;49.596;11.070;2023-06-22T08:16:36;98190.22;;;33.26
15360;BMP280;7779;49.596;11.070;2023-06-22T08:19:02;98195.91;;;33.37
15360;BMP280;7779;49.596;11.070;2023-06-22T08:21:28;98188.63;;;33.46
15360;BMP280;7779;49.596;11.070;2023-06-22T08:23:53;98188.22;;;33.56
15360;BMP280;7779;49.596;11.070;2023-06-22T08:26:19;98184.50;;;33.63
15360;BMP280;7779;49.596;11.070;2023-06-22T08:28:45;98182.75;;;33.64
15360;BMP280;7779;49.596;11.070;2023-06-22T08:31:11;98188.72;;;33.66
15360;BMP280;7779;49.596;11.070;2023-06-22T08:33:37;98177.44;;;33.67
15360;BMP280;7779;49.596;11.070;2023-06-22T08:36:04;98175.63;;;33.69
15360;BMP280;7779;49.596;11.070;2023-06-22T08:38:31;98175.63;;;33.69
15360;BMP280;7779;49.596;11.070;2023-06-22T08:40:57;98176.53;;;33.68
15360;BMP280;7779;49.596;11.070;2023-06-22T08:43:23;98181.78;;;33.66
15360;BMP280;7779;49.596;11.070;2023-06-22T08:45:48;98178.38;;;33.64
15360;BMP280;7779;49.596;11.070;2023-06-22T08:48:14;98180.88;;;33.67
15360;BMP280;7779;49.596;11.070;2023-06-22T08:50:40;98183.38;;;33.70
15360;BMP280;7779;49.596;11.070;2023-06-22T08:53:06;98176.47;;;33.69
15360;BMP280;7779;49.596;11.070;2023-06-22T08:55:31;98169.38;;;33.74
15360;BMP280;7779;49.596;11.070;2023-06-22T08:57:57;98171.81;;;33.77
15360;BMP280;7779;49.596;11.070;2023-06-22T09:00:23;98160.53;;;33.78
15360;BMP280;7779;49.596;11.070;2023-06-22T09:02:49;98165.63;;;33.81
15360;BMP280;7779;49.596;11.070;2023-06-22T09:05:15;98162.88;;;33.86
15360;BMP280;7779;49.596;11.070;2023-06-22T09:07:41;98151.44;;;33.90
15360;BMP280;7779;49.596;11.070;2023-06-22T09:10:07;98152.97;;;33.95
15360;BMP280;7779;49.596;11.070;2023-06-22T09:12:34;98148.44;;;34.00
15360;BMP280;7779;49.596;11.070;2023-06-22T09:15:00;98139.59;;;34.04
15360;BMP280;7779;49.596;11.070;2023-06-22T09:17:27;98140.38;;;34.06
15360;BMP280;7779;49.596;11.070;2023-06-22T09:19:53;98134.09;;;34.11
15360;BMP280;7779;49.596;11.070;2023-06-22T09:22:19;98129.50;;;34.18
15360;BMP280;7779;49.596;11.070;2023-06-22T09:24:44;98126.59;;;34.25
15360;BMP280;7779;49.596;11.070;2023-06-22T09:27:10;98117.56;;;34.35
15360;BMP280;7779;49.596;11.070;2023-06-22T09:29:36;98126.59;;;34.46
15360;BMP280;7779;49.596;11.070;2023-06-22T09:32:02;98116.59;;;34.57
15360;BMP280;7779;49.596;11.070;2023-06-22T09:34:28;98114.19;;;34.72
15360;BMP280;7779;49.596;11.070;2023-06-22T09:36:53;98102.38;;;34.85
15360;BMP280;7779;49.596;11.070;2023-06-22T09:39:20;98105.22;;;34.99
15360;BMP280;7779;49.596;11.070;2023-06-22T09:41:46;98093.34;;;35.12
15360;BMP280;7779;49.596;11.070;2023-06-22T09:44:12;98087.53;;;35.25
15360;BMP280;7779;49.596;11.070;2023-06-22T09:46:37;98077.38;;;35.39
15360;BMP280;7779;49.596;11.070;2023-06-22T09:49:03;98084.81;;;35.47
15360;BMP280;7779;49.596;11.070;2023-06-22T09:51:29;98094.25;;;35.49
15360;BMP280;7779;49.596;11.070;2023-06-22T09:53:55;98089.88;;;35.50
15360;BMP280;7779;49.596;11.070;2023-06-22T09:56:20;98083.81;;;35.49
15360;BMP280;7779;49.596;11.070;2023-06-22T09:58:47;98085.59;;;35.49
15360;BMP280;7779;49.596;11.070;2023-06-22T10:01:13;98087.34;;;35.48
15360;BMP280;7779;49.596;11.070;2023-06-22T10:03:42;98083.97;;;35.46
15360;BMP280;7779;49.596;11.070;2023-06-22T10:06:08;98072.00;;;35.42
15360;BMP280;7779;49.596;11.070;2023-06-22T10:08:35;98067.06;;;35.36
15360;BMP280;7779;49.596;11.070;2023-06-22T10:11:03;98077.63;;;35.33
15360;BMP280;7779;49.596;11.070;2023-06-22T10:13:29;98082.19;;;35.28
15360;BMP280;7779;49.596;11.070;2023-06-22T10:15:54;98079.84;;;35.22
15360;BMP280;7779;49.596;11.070;2023-06-22T10:18:21;98086.88;;;35.20
15360;BMP280;7779;49.596;11.070;2023-06-22T10:20:52;98073.94;;;35.19
15360;BMP280;7779;49.596;11.070;2023-06-22T10:23:19;98080.91;;;35.18
15360;BMP280;7779;49.596;11.070;2023-06-22T10:25:45;98080.00;;;35.19
15360;BMP280;7779;49.596;11.070;2023-06-22T10:28:11;98072.19;;;35.19
15360;BMP280;7779;49.596;11.070;2023-06-22T10:30:39;98078.00;;;35.24
15360;BMP280;7779;49.596;11.070;2023-06-22T10:33:09;98095.16;;;35.30
15360;BMP280;7779;49.596;11.070;2023-06-22T10:35:36;98092.41;;;35.33
15360;BMP280;7779;49.596;11.070;2023-06-22T10:38:06;98099.13;;;35.38
15360;BMP280;7779;49.596;11.070;2023-06-22T10:40:31;98085.09;;;35.41
15360;BMP280;7779;49.596;11.070;2023-06-22T10:42:57;98077.06;;;35.45
15360;BMP280;7779;49.596;11.070;2023-06-22T10:45:23;98075.94;;;35.51
15360;BMP280;7779;49.596;11.070;2023-06-22T10:47:49;98083.69;;;35.52
15360;BMP280;7779;49.596;11.070;2023-06-22T10:50:14;98070.56;;;35.53
15360;BMP280;7779;49.596;11.070;2023-06-22T10:52:40;98067.13;;;35.53
15360;BMP280;7779;49.596;11.070;2023-06-22T10:55:09;98064.41;;;35.56
15360;BMP280;7779;49.596;11.070;2023-06-22T10:57:35;98066.84;;;35.59
15360;BMP280;7779;49.596;11.070;2023-06-22T11:00:03;98067.53;;;35.62
15360;BMP280;7779;49.596;11.070;2023-06-22T11:02:32;98061.28;;;35.66
15360;BMP280;7779;49.596;11.070;2023-06-22T11:04:58;98067.22;;;35.70
15360;BMP280;7779;49.596;11.070;2023-06-22T11:07:26;98061.00;;;35.72
15360;BMP280;7779;49.596;11.070;2023-06-22T11:09:55;98048.63;;;35.77
15360;BMP280;7779;49.596;11.070;2023-06-22T11:12:21;98049.41;;;35.79
15360;BMP280;7779;49.596;11.070;2023-06-22T11:14:46;98040.50;;;35.83
15360;BMP280;7779;49.596;11.070;2023-06-22T11:17:12;98044.13;;;35.81
15360;BMP280;7779;49.596;11.070;2023-06-22T11:19:38;98039.03;;;35.78
15360;BMP280;7779;49.596;11.070;2023-06-22T11:22:04;98040.09;;;35.74
15360;BMP280;7779;49.596;11.070;2023-06-22T11:24:30;98026.41;;;35.69
15360;BMP280;7779;49.596;11.070;2023-06-22T11:26:56;98024.09;;;35.63
15360;BMP280;7779;49.596;11.070;2023-06-22T11:29:21;98015.34;;;35.64
15360;BMP280;7779;49.596;11.070;2023-06-22T11:31:47;98003.09;;;35.66
15360;BMP280;7779;49.596;11.070;2023-06-22T11:34:13;98001.84;;;35.74
15360;BMP280;7779;49.596;11.070;2023-06-22T11:36:38;98004.06;;;35.82
15360;BMP280;7779;49.596;11.070;2023-06-22T11:39:04;98006.53;;;35.85
15360;BMP280;7779;49.596;11.070;2023-06-22T11:41:30;98001.09;;;35.89
15360;BMP280;7779;49.596;11.070;2023-06-22T11:43:56;97997.25;;;35.96
15360;BMP280;7779;49.596;11.070;2023-06-22T11:46:22;97990.00;;;36.02
15360;BMP280;7779;49.596;11.070;2023-06-22T11:48:47;97989.69;;;36.08
15360;BMP280;7779;49.596;11.070;2023-06-22T11:51:13;97991.19;;;36.12
15360;BMP280;7779;49.596;11.070;2023-06-22T11:53:39;97992.56;;;36.21
15360;BMP280;7779;49.596;11.070;2023-06-22T11:56:04;97985.03;;;36.32
15360;BMP280;7779;49.596;11.070;2023-06-22T11:58:30;97970.56;;;36.41
15360;BMP280;7779;49.596;11.070;2023-06-22T12:00:56;97977.91;;;36.50
15360;BMP280;7779;49.596;11.070;2023-06-22T12:03:21;97972.28;;;36.58
15360;BMP280;7779;49.596;11.070;2023-06-22T12:05:50;97956.38;;;36.64
15360;BMP280;7779;49.596;11.070;2023-06-22T12:08:17;97956.03;;;36.70
15360;BMP280;7779;49.596;11.070;2023-06-22T12:10:42;97964.28;;;36.77
15360;BMP280;7779;49.596;11.070;2023-06-22T12:13:08;97959.75;;;36.81
15360;BMP280;7779;49.596;11.070;2023-06-22T12:15:34;97958.91;;;36.80
15360;BMP280;7779;49.596;11.070;2023-06-22T12:17:59;97953.69;;;36.80
15360;BMP280;7779;49.596;11.070;2023-06-22T12:20:26;97952.84;;;36.80
15360;BMP280;7779;49.596;11.070;2023-06-22T12:22:52;97936.31;;;36.79
15360;BMP280;7779;49.596;11.070;2023-06-22T12:25:19;97932.81;;;36.80
15360;BMP280;7779;49.596;11.070;2023-06-22T12:27:45;97918.84;;;36.81
15360;BMP280;7779;49.596;11.070;2023-06-22T12:30:11;97911.75;;;36.83
15360;BMP280;7779;49.596;11.070;2023-06-22T12:32:36;97903.75;;;36.86
15360;BMP280;7779;49.596;11.070;2023-06-22T12:35:02;97896.44;;;36.93
15360;BMP280;7779;49.596;11.070;2023-06-22T12:37:28;97884.53;;;37.03
15360;BMP280;7779;49.596;11.070;2023-06-22T12:39:55;97884.91;;;37.12
15360;BMP280;7779;49.596;11.070;2023-06-22T12:42:20;97872.19;;;37.21
15360;BMP280;7779;49.596;11.070;2023-06-22T12:44:46;97872.50;;;37.31
15360;BMP280;7779;49.596;11.070;2023-06-22T12:47:12;97871.97;;;37.40
15360;BMP280;7779;49.596;11.070;2023-06-22T12:49:39;97877.19;;;37.55
15360;BMP280;7779;49.596;11.070;2023-06-22T12:52:09;97875.44;;;37.69
15360;BMP280;7779;49.596;11.070;2023-06-22T12:54:36;97874.81;;;37.80
15360;BMP280;7779;49.596;11.070;2023-06-22T12:57:02;97879.25;;;37.93
15360;BMP280;7779;49.596;11.070;2023-06-22T12:59:27;97880.59;;;38.00
15360;BMP280;7779;49.596;11.070;2023-06-22T13:01:53;97873.88;;;38.10
15360;BMP280;7779;49.596;11.070;2023-06-22T13:04:20;97873.34;;;38.19
15360;BMP280;7779;49.596;11.070;2023-06-22T13:06:47;97864.06;;;38.27
15360;BMP280;7779;49.596;11.070;2023-06-22T13:09:14;97865.50;;;38.33
15360;BMP280;7779;49.596;11.070;2023-06-22T13:11:42;97860.75;;;38.39
15360;BMP280;7779;49.596;11.070;2023-06-22T13:14:08;97867.19;;;38.47
15360;BMP280;7779;49.596;11.070;2023-06-22T13:16:33;97868.31;;;38.57
15360;BMP280;7779;49.596;11.070;2023-06-22T13:18:59;97871.31;;;38.65
15360;BMP280;7779;49.596;11.070;2023-06-22T13:21:25;97868.19;;;38.72
15360;BMP280;7779;49.596;11.070;2023-06-22T13:23:51;97866.78;;;38.81
15360;BMP280;7779;49.596;11.070;2023-06-22T13:26:16;97867.25;;;38.87
15360;BMP280;7779;49.596;11.070;2023-06-22T13:28:42;97875.84;;;38.89
15360;BMP280;7779;49.596;11.070;2023-06-22T13:31:08;97860.97;;;38.90
15360;BMP280;7779;49.596;11.070;2023-06-22T13:33:33;97865.09;;;38.94
15360;BMP280;7779;49.596;11.070;2023-06-22T13:35:59;97865.84;;;38.96
15360;BMP280;7779;49.596;11.070;2023-06-22T13:38:25;97862.38;;;38.95
15360;BMP280;7779;49.596;11.070;2023-06-22T13:40:50;97862.28;;;38.97
15360;BMP280;7779;49.596;11.070;2023-06-22T13:43:16;97871.81;;;38.98
15360;BMP280;7779;49.596;11.070;2023-06-22T13:45:43;97865.84;;;38.96
15360;BMP280;7779;49.596;11.070;2023-06-22T13:48:09;97866.03;;;38.93
15360;BMP280;7779;49.596;11.070;2023-06-22T13:50:35;97866.03;;;38.93
15360;BMP280;7779;49.596;11.070;2023-06-22T13:53:01;97863.09;;;38.97
15360;BMP280;7779;49.596;11.070;2023-06-22T13:55:27;97856.63;;;39.03
15360;BMP280;7779;49.596;11.070;2023-06-22T13:57:53;97854.56;;;39.08
15360;BMP280;7779;49.596;11.070;2023-06-22T14:00:19;97859.63;;;39.11
15360;BMP280;7779;49.596;11.070;2023-06-22T14:02:45;97851.66;;;39.12
15360;BMP280;7779;49.596;11.070;2023-06-22T14:05:11;97840.03;;;39.16
15360;BMP280;7779;49.596;11.070;2023-06-22T14:07:37;97835.34;;;39.21
15360;BMP280;7779;49.596;11.070;2023-06-22T14:10:04;97820.06;;;39.27
15360;BMP280;7779;49.596;11.070;2023-06-22T14:12:29;97823.25;;;39.32